sensor_id;sensor_type;location;lat;lon;timestamp;P1;durP1;ratioP1;P2;durP2;ratioP2
41685;SDS011;27370;42.764;23.432;2022-11-11T00:01:08;79.25;;;45.00;;
41685;SDS011;27370;42.764;23.432;2022-11-11T00:03:55;75.05;;;44.45;;
41685;SDS011;27370;42.764;23.432;2022-11-11T00:06:39;75.45;;;45.90;;
41685;SDS011;27370;42.764;23.432;2022-11-11T00:09:23;77.28;;;43.95;;
41685;SDS011;27370;42.764;23.432;2022-11-11T00:12:07;114.53;;;60.38;;
41685;SDS011;27370;42.764;23.432;2022-11-11T00:14:51;117.68;;;59.05;;
41685;SDS011;27370;42.764;23.432;2022-11-11T00:17:35;107.18;;;56.88;;
41685;SDS011;27370;42.764;23.432;2022-11-11T00:20:38;113.70;;;54.83;;
41685;SDS011;27370;42.764;23.432;2022-11-11T00:23:41;96.80;;;51.28;;
41685;SDS011;27370;42.764;23.432;2022-11-11T00:26:44;106.55;;;52.60;;
41685;SDS011;27370;42.764;23.432;2022-11-11T00:29:28;93.25;;;49.22;;
41685;SDS011;27370;42.764;23.432;2022-11-11T00:32:12;78.93;;;46.08;;
41685;SDS011;27370;42.764;23.432;2022-11-11T00:35:06;89.03;;;47.38;;
41685;SDS011;27370;42.764;23.432;2022-11-11T00:38:10;82.85;;;44.10;;
41685;SDS011;27370;42.764;23.432;2022-11-11T00:41:16;83.22;;;45.20;;
41685;SDS011;27370;42.764;23.432;2022-11-11T00:44:02;83.53;;;46.88;;
41685;SDS011;27370;42.764;23.432;2022-11-11T00:46:46;84.32;;;43.47;;
41685;SDS011;27370;42.764;23.432;2022-11-11T00:49:49;79.65;;;44.00;;
41685;SDS011;27370;42.764;23.432;2022-11-11T00:52:52;76.97;;;44.13;;
41685;SDS011;27370;42.764;23.432;2022-11-11T00:55:36;130.10;;;48.35;;
41685;SDS011;27370;42.764;23.432;2022-11-11T00:58:20;95.60;;;46.58;;
41685;SDS011;27370;42.764;23.432;2022-11-11T01:01:05;85.72;;;45.28;;
41685;SDS011;27370;42.764;23.432;2022-11-11T01:03:49;84.57;;;48.53;;
41685;SDS011;27370;42.764;23.432;2022-11-11T01:06:33;77.40;;;45.80;;
41685;SDS011;27370;42.764;23.432;2022-11-11T01:09:17;88.38;;;47.45;;
41685;SDS011;27370;42.764;23.432;2022-11-11T01:12:01;84.97;;;48.33;;
41685;SDS011;27370;42.764;23.432;2022-11-11T01:14:44;90.10;;;46.40;;
41685;SDS011;27370;42.764;23.432;2022-11-11T01:17:29;90.15;;;48.78;;
41685;SDS011;27370;42.764;23.432;2022-11-11T01:20:13;420.85;;;74.40;;
41685;SDS011;27370;42.764;23.432;2022-11-11T01:22:57;144.32;;;55.10;;
41685;SDS011;27370;42.764;23.432;2022-11-11T01:25:41;630.67;;;82.18;;
41685;SDS011;27370;42.764;23.432;2022-11-11T01:28:26;264.15;;;59.05;;
41685;SDS011;27370;42.764;23.432;2022-11-11T01:31:11;131.57;;;49.25;;
41685;SDS011;27370;42.764;23.432;2022-11-11T01:33:57;97.85;;;46.70;;
41685;SDS011;27370;42.764;23.432;2022-11-11T01:36:40;82.70;;;45.63;;
41685;SDS011;27370;42.764;23.432;2022-11-11T01:39:24;118.70;;;46.05;;
41685;SDS011;27370;42.764;23.432;2022-11-11T01:42:09;77.43;;;43.50;;
41685;SDS011;27370;42.764;23.432;2022-11-11T01:44:53;80.22;;;45.67;;
41685;SDS011;27370;42.764;23.432;2022-11-11T01:47:37;71.32;;;42.22;;
41685;SDS011;27370;42.764;23.432;2022-11-11T01:50:40;78.43;;;44.13;;
41685;SDS011;27370;42.764;23.432;2022-11-11T01:53:24;72.63;;;43.90;;
41685;SDS011;27370;42.764;23.432;2022-11-11T01:56:08;81.78;;;44.42;;
41685;SDS011;27370;42.764;23.432;2022-11-11T01:58:55;85.35;;;47.40;;
41685;SDS011;27370;42.764;23.432;2022-11-11T02:01:43;80.23;;;43.90;;
41685;SDS011;27370;42.764;23.432;2022-11-11T02:04:28;81.53;;;45.33;;
41685;SDS011;27370;42.764;23.432;2022-11-11T02:07:32;76.25;;;42.72;;
41685;SDS011;27370;42.764;23.432;2022-11-11T02:10:23;72.72;;;44.20;;
41685;SDS011;27370;42.764;23.432;2022-11-11T02:13:11;75.78;;;44.97;;
41685;SDS011;27370;42.764;23.432;2022-11-11T02:16:15;70.75;;;42.70;;
41685;SDS011;27370;42.764;23.432;2022-11-11T02:19:00;73.28;;;42.88;;
41685;SDS011;27370;42.764;23.432;2022-11-11T02:21:46;72.35;;;44.00;;
41685;SDS011;27370;42.764;23.432;2022-11-11T02:24:38;76.00;;;44.63;;
41685;SDS011;27370;42.764;23.432;2022-11-11T02:27:25;70.03;;;43.45;;
41685;SDS011;27370;42.764;23.432;2022-11-11T02:30:11;93.25;;;46.30;;
41685;SDS011;27370;42.764;23.432;2022-11-11T02:32:58;71.22;;;43.40;;
41685;SDS011;27370;42.764;23.432;2022-11-11T02:35:44;83.35;;;45.38;;
41685;SDS011;27370;42.764;23.432;2022-11-11T02:38:38;77.97;;;44.65;;
41685;SDS011;27370;42.764;23.432;2022-11-11T02:41:22;74.80;;;43.22;;
41685;SDS011;27370;42.764;23.432;2022-11-11T02:44:25;68.82;;;43.45;;
41685;SDS011;27370;42.764;23.432;2022-11-11T02:47:10;66.95;;;41.80;;
41685;SDS011;27370;42.764;23.432;2022-11-11T02:49:54;73.07;;;42.17;;
41685;SDS011;27370;42.764;23.432;2022-11-11T02:52:38;67.88;;;40.42;;
41685;SDS011;27370;42.764;23.432;2022-11-11T02:55:22;68.55;;;39.75;;
41685;SDS011;27370;42.764;23.432;2022-11-11T02:58:06;66.95;;;39.72;;
41685;SDS011;27370;42.764;23.432;2022-11-11T03:00:50;68.07;;;41.58;;
41685;SDS011;27370;42.764;23.432;2022-11-11T03:03:33;74.00;;;43.28;;
41685;SDS011;27370;42.764;23.432;2022-11-11T03:06:17;75.10;;;44.22;;
41685;SDS011;27370;42.764;23.432;2022-11-11T03:09:01;72.85;;;43.92;;
41685;SDS011;27370;42.764;23.432;2022-11-11T03:11:45;74.35;;;42.80;;
41685;SDS011;27370;42.764;23.432;2022-11-11T03:14:29;63.15;;;38.42;;
41685;SDS011;27370;42.764;23.432;2022-11-11T03:17:13;69.97;;;40.60;;
41685;SDS011;27370;42.764;23.432;2022-11-11T03:20:17;69.80;;;42.10;;
41685;SDS011;27370;42.764;23.432;2022-11-11T03:23:20;67.45;;;42.45;;
41685;SDS011;27370;42.764;23.432;2022-11-11T03:26:04;65.68;;;40.03;;
41685;SDS011;27370;42.764;23.432;2022-11-11T03:28:48;63.72;;;40.13;;
41685;SDS011;27370;42.764;23.432;2022-11-11T03:31:32;66.18;;;41.13;;
41685;SDS011;27370;42.764;23.432;2022-11-11T03:34:16;67.63;;;43.53;;
41685;SDS011;27370;42.764;23.432;2022-11-11T03:37:00;67.75;;;42.30;;
41685;SDS011;27370;42.764;23.432;2022-11-11T03:40:03;69.20;;;42.92;;
41685;SDS011;27370;42.764;23.432;2022-11-11T03:42:48;68.55;;;42.28;;
41685;SDS011;27370;42.764;23.432;2022-11-11T03:45:32;72.70;;;44.65;;
41685;SDS011;27370;42.764;23.432;2022-11-11T03:48:16;76.75;;;44.83;;
41685;SDS011;27370;42.764;23.432;2022-11-11T03:51:00;81.05;;;45.90;;
41685;SDS011;27370;42.764;23.432;2022-11-11T03:53:44;90.78;;;49.08;;
41685;SDS011;27370;42.764;23.432;2022-11-11T03:56:28;95.22;;;49.60;;
41685;SDS011;27370;42.764;23.432;2022-11-11T03:59:12;117.88;;;58.95;;
41685;SDS011;27370;42.764;23.432;2022-11-11T04:01:56;124.45;;;57.28;;
41685;SDS011;27370;42.764;23.432;2022-11-11T04:04:59;200.30;;;55.05;;
41685;SDS011;27370;42.764;23.432;2022-11-11T04:08:02;202.40;;;56.10;;
41685;SDS011;27370;42.764;23.432;2022-11-11T04:11:11;147.60;;;56.53;;
41685;SDS011;27370;42.764;23.432;2022-11-11T04:14:03;205.98;;;61.17;;
41685;SDS011;27370;42.764;23.432;2022-11-11T04:17:08;120.88;;;52.33;;
41685;SDS011;27370;42.764;23.432;2022-11-11T04:19:52;104.80;;;49.85;;
41685;SDS011;27370;42.764;23.432;2022-11-11T04:22:55;99.22;;;49.13;;
41685;SDS011;27370;42.764;23.432;2022-11-11T04:25:39;85.10;;;47.55;;
41685;SDS011;27370;42.764;23.432;2022-11-11T04:28:32;83.03;;;47.22;;
41685;SDS011;27370;42.764;23.432;2022-11-11T04:31:35;85.07;;;51.10;;
41685;SDS011;27370;42.764;23.432;2022-11-11T04:34:19;79.80;;;48.40;;
41685;SDS011;27370;42.764;23.432;2022-11-11T04:37:03;74.13;;;45.78;;
41685;SDS011;27370;42.764;23.432;2022-11-11T04:39:48;78.93;;;44.30;;
41685;SDS011;27370;42.764;23.432;2022-11-11T04:42:54;75.93;;;43.90;;
41685;SDS011;27370;42.764;23.432;2022-11-11T04:45:38;75.25;;;44.33;;
41685;SDS011;27370;42.764;23.432;2022-11-11T04:48:22;76.57;;;44.60;;
41685;SDS011;27370;42.764;23.432;2022-11-11T04:51:06;74.68;;;43.42;;
41685;SDS011;27370;42.764;23.432;2022-11-11T04:53:50;67.50;;;42.13;;
41685;SDS011;27370;42.764;23.432;2022-11-11T04:56:34;68.32;;;42.00;;
41685;SDS011;27370;42.764;23.432;2022-11-11T04:59:30;68.07;;;42.00;;
41685;SDS011;27370;42.764;23.432;2022-11-11T05:02:14;64.80;;;40.88;;
41685;SDS011;27370;42.764;23.432;2022-11-11T05:05:17;67.47;;;38.85;;
41685;SDS011;27370;42.764;23.432;2022-11-11T05:08:01;54.92;;;37.08;;
41685;SDS011;27370;42.764;23.432;2022-11-11T05:11:27;61.42;;;40.22;;
41685;SDS011;27370;42.764;23.432;2022-11-11T05:14:13;60.35;;;38.50;;
41685;SDS011;27370;42.764;23.432;2022-11-11T05:17:32;61.08;;;37.72;;
41685;SDS011;27370;42.764;23.432;2022-11-11T05:20:35;62.50;;;38.45;;
41685;SDS011;27370;42.764;23.432;2022-11-11T05:23:38;60.13;;;37.85;;
41685;SDS011;27370;42.764;23.432;2022-11-11T05:26:41;65.78;;;39.28;;
41685;SDS011;27370;42.764;23.432;2022-11-11T05:29:26;61.00;;;38.60;;
41685;SDS011;27370;42.764;23.432;2022-11-11T05:32:11;59.47;;;39.10;;
41685;SDS011;27370;42.764;23.432;2022-11-11T05:35:00;64.93;;;39.00;;
41685;SDS011;27370;42.764;23.432;2022-11-11T05:37:44;57.20;;;38.13;;
41685;SDS011;27370;42.764;23.432;2022-11-11T05:40:48;61.05;;;37.33;;
41685;SDS011;27370;42.764;23.432;2022-11-11T05:43:32;55.70;;;35.78;;
41685;SDS011;27370;42.764;23.432;2022-11-11T05:46:16;56.40;;;36.65;;
41685;SDS011;27370;42.764;23.432;2022-11-11T05:49:00;62.78;;;39.05;;
41685;SDS011;27370;42.764;23.432;2022-11-11T05:51:59;64.75;;;38.25;;
41685;SDS011;27370;42.764;23.432;2022-11-11T05:54:44;59.78;;;38.67;;
41685;SDS011;27370;42.764;23.432;2022-11-11T05:57:28;58.45;;;36.80;;
41685;SDS011;27370;42.764;23.432;2022-11-11T06:00:12;59.28;;;38.08;;
41685;SDS011;27370;42.764;23.432;2022-11-11T06:03:03;59.63;;;38.47;;
41685;SDS011;27370;42.764;23.432;2022-11-11T06:05:51;61.05;;;38.83;;
41685;SDS011;27370;42.764;23.432;2022-11-11T06:08:35;58.78;;;38.85;;
41685;SDS011;27370;42.764;23.432;2022-11-11T06:11:19;56.13;;;38.03;;
41685;SDS011;27370;42.764;23.432;2022-11-11T06:14:04;54.08;;;36.40;;
41685;SDS011;27370;42.764;23.432;2022-11-11T06:16:48;55.85;;;36.75;;
41685;SDS011;27370;42.764;23.432;2022-11-11T06:19:32;53.25;;;36.85;;
41685;SDS011;27370;42.764;23.432;2022-11-11T06:22:16;60.80;;;38.65;;
41685;SDS011;27370;42.764;23.432;2022-11-11T06:25:20;53.95;;;36.58;;
41685;SDS011;27370;42.764;23.432;2022-11-11T06:28:22;50.47;;;35.38;;
41685;SDS011;27370;42.764;23.432;2022-11-11T06:31:07;56.25;;;37.25;;
41685;SDS011;27370;42.764;23.432;2022-11-11T06:33:52;58.95;;;38.22;;
41685;SDS011;27370;42.764;23.432;2022-11-11T06:36:37;55.97;;;37.75;;
41685;SDS011;27370;42.764;23.432;2022-11-11T06:39:20;57.22;;;37.40;;
41685;SDS011;27370;42.764;23.432;2022-11-11T06:42:04;58.40;;;37.45;;
41685;SDS011;27370;42.764;23.432;2022-11-11T06:44:48;57.33;;;39.15;;
41685;SDS011;27370;42.764;23.432;2022-11-11T06:47:32;73.72;;;48.88;;
41685;SDS011;27370;42.764;23.432;2022-11-11T06:50:16;66.40;;;42.67;;
41685;SDS011;27370;42.764;23.432;2022-11-11T06:53:08;68.13;;;43.42;;
41685;SDS011;27370;42.764;23.432;2022-11-11T06:55:55;69.88;;;43.33;;
41685;SDS011;27370;42.764;23.432;2022-11-11T06:58:39;62.53;;;40.80;;
41685;SDS011;27370;42.764;23.432;2022-11-11T07:01:23;61.08;;;42.15;;
41685;SDS011;27370;42.764;23.432;2022-11-11T07:04:07;60.85;;;41.85;;
41685;SDS011;27370;42.764;23.432;2022-11-11T07:06:51;61.42;;;42.65;;
41685;SDS011;27370;42.764;23.432;2022-11-11T07:09:35;70.70;;;45.80;;
41685;SDS011;27370;42.764;23.432;2022-11-11T07:12:19;64.65;;;46.75;;
41685;SDS011;27370;42.764;23.432;2022-11-11T07:15:04;70.13;;;48.00;;
41685;SDS011;27370;42.764;23.432;2022-11-11T07:17:48;72.32;;;50.70;;
41685;SDS011;27370;42.764;23.432;2022-11-11T07:20:33;72.20;;;48.35;;
41685;SDS011;27370;42.764;23.432;2022-11-11T07:23:17;66.10;;;46.35;;
41685;SDS011;27370;42.764;23.432;2022-11-11T07:26:01;62.47;;;43.42;;
41685;SDS011;27370;42.764;23.432;2022-11-11T07:28:45;63.97;;;41.60;;
41685;SDS011;27370;42.764;23.432;2022-11-11T07:31:29;63.42;;;35.08;;
41685;SDS011;27370;42.764;23.432;2022-11-11T07:34:13;57.70;;;35.30;;
41685;SDS011;27370;42.764;23.432;2022-11-11T07:36:57;53.60;;;32.67;;
41685;SDS011;27370;42.764;23.432;2022-11-11T07:39:41;53.78;;;32.35;;
41685;SDS011;27370;42.764;23.432;2022-11-11T07:42:25;51.42;;;32.90;;
41685;SDS011;27370;42.764;23.432;2022-11-11T07:45:10;51.25;;;33.08;;
41685;SDS011;27370;42.764;23.432;2022-11-11T07:47:54;50.13;;;32.20;;
41685;SDS011;27370;42.764;23.432;2022-11-11T07:50:38;49.35;;;32.15;;
41685;SDS011;27370;42.764;23.432;2022-11-11T07:53:22;77.70;;;42.38;;
41685;SDS011;27370;42.764;23.432;2022-11-11T07:56:08;50.83;;;33.58;;
41685;SDS011;27370;42.764;23.432;2022-11-11T07:58:52;45.50;;;31.13;;
41685;SDS011;27370;42.764;23.432;2022-11-11T08:01:36;40.00;;;27.27;;
41685;SDS011;27370;42.764;23.432;2022-11-11T08:04:20;41.03;;;29.15;;
41685;SDS011;27370;42.764;23.432;2022-11-11T08:07:04;44.08;;;30.05;;
41685;SDS011;27370;42.764;23.432;2022-11-11T08:09:49;41.40;;;29.15;;
41685;SDS011;27370;42.764;23.432;2022-11-11T08:12:33;40.67;;;28.13;;
41685;SDS011;27370;42.764;23.432;2022-11-11T08:15:47;38.90;;;27.48;;
41685;SDS011;27370;42.764;23.432;2022-11-11T08:18:31;39.90;;;28.13;;
41685;SDS011;27370;42.764;23.432;2022-11-11T08:21:17;40.05;;;26.80;;
41685;SDS011;27370;42.764;23.432;2022-11-11T08:24:01;37.33;;;27.35;;
41685;SDS011;27370;42.764;23.432;2022-11-11T08:26:45;36.20;;;26.77;;
41685;SDS011;27370;42.764;23.432;2022-11-11T08:29:30;37.63;;;27.55;;
41685;SDS011;27370;42.764;23.432;2022-11-11T08:32:14;39.53;;;27.25;;
41685;SDS011;27370;42.764;23.432;2022-11-11T08:34:58;38.13;;;26.58;;
41685;SDS011;27370;42.764;23.432;2022-11-11T08:37:42;37.47;;;27.90;;
41685;SDS011;27370;42.764;23.432;2022-11-11T08:40:26;44.10;;;30.30;;
41685;SDS011;27370;42.764;23.432;2022-11-11T08:43:10;38.35;;;27.13;;
41685;SDS011;27370;42.764;23.432;2022-11-11T08:45:54;36.78;;;25.90;;
41685;SDS011;27370;42.764;23.432;2022-11-11T08:48:40;34.55;;;24.58;;
41685;SDS011;27370;42.764;23.432;2022-11-11T08:51:24;33.03;;;22.08;;
41685;SDS011;27370;42.764;23.432;2022-11-11T08:54:08;25.73;;;17.23;;
41685;SDS011;27370;42.764;23.432;2022-11-11T08:56:52;22.48;;;15.23;;
41685;SDS011;27370;42.764;23.432;2022-11-11T08:59:38;20.40;;;13.73;;
41685;SDS011;27370;42.764;23.432;2022-11-11T09:02:22;18.75;;;12.68;;
41685;SDS011;27370;42.764;23.432;2022-11-11T09:05:06;20.23;;;13.38;;
41685;SDS011;27370;42.764;23.432;2022-11-11T09:07:50;18.35;;;12.60;;
41685;SDS011;27370;42.764;23.432;2022-11-11T09:10:35;15.98;;;9.80;;
41685;SDS011;27370;42.764;23.432;2022-11-11T09:13:20;16.77;;;10.93;;
41685;SDS011;27370;42.764;23.432;2022-11-11T09:16:05;16.88;;;10.60;;
41685;SDS011;27370;42.764;23.432;2022-11-11T09:18:49;15.82;;;10.77;;
41685;SDS011;27370;42.764;23.432;2022-11-11T09:21:34;18.05;;;11.65;;
41685;SDS011;27370;42.764;23.432;2022-11-11T09:24:18;16.52;;;10.80;;
41685;SDS011;27370;42.764;23.432;2022-11-11T09:27:02;16.95;;;11.65;;
41685;SDS011;27370;42.764;23.432;2022-11-11T09:29:46;16.85;;;10.75;;
41685;SDS011;27370;42.764;23.432;2022-11-11T09:32:30;16.92;;;11.13;;
41685;SDS011;27370;42.764;23.432;2022-11-11T09:35:15;17.73;;;11.50;;
41685;SDS011;27370;42.764;23.432;2022-11-11T09:37:59;16.38;;;10.77;;
41685;SDS011;27370;42.764;23.432;2022-11-11T09:40:46;15.80;;;10.63;;
41685;SDS011;27370;42.764;23.432;2022-11-11T09:43:42;17.45;;;11.10;;
41685;SDS011;27370;42.764;23.432;2022-11-11T09:52:32;15.80;;;10.27;;
41685;SDS011;27370;42.764;23.432;2022-11-11T09:58:25;16.95;;;11.05;;
41685;SDS011;27370;42.764;23.432;2022-11-11T10:01:20;17.17;;;9.90;;
41685;SDS011;27370;42.764;23.432;2022-11-11T10:07:12;13.45;;;8.88;;
41685;SDS011;27370;42.764;23.432;2022-11-11T10:12:56;13.73;;;8.85;;
41685;SDS011;27370;42.764;23.432;2022-11-11T10:21:44;12.82;;;8.25;;
41685;SDS011;27370;42.764;23.432;2022-11-11T10:24:34;13.18;;;8.35;;
41685;SDS011;27370;42.764;23.432;2022-11-11T10:27:23;13.30;;;8.10;;
41685;SDS011;27370;42.764;23.432;2022-11-11T10:30:24;14.60;;;8.23;;
41685;SDS011;27370;42.764;23.432;2022-11-11T10:36:31;13.75;;;8.60;;
41685;SDS011;27370;42.764;23.432;2022-11-11T10:39:18;13.75;;;9.10;;
41685;SDS011;27370;42.764;23.432;2022-11-11T10:42:14;14.35;;;9.25;;
41685;SDS011;27370;42.764;23.432;2022-11-11T10:45:00;14.50;;;9.20;;
41685;SDS011;27370;42.764;23.432;2022-11-11T10:50:39;14.90;;;10.05;;
41685;SDS011;27370;42.764;23.432;2022-11-11T10:56:28;14.27;;;9.15;;
41685;SDS011;27370;42.764;23.432;2022-11-11T11:02:29;13.63;;;8.40;;
41685;SDS011;27370;42.764;23.432;2022-11-11T11:05:23;14.07;;;8.88;;
41685;SDS011;27370;42.764;23.432;2022-11-11T11:08:15;13.10;;;8.48;;
41685;SDS011;27370;42.764;23.432;2022-11-11T11:14:00;12.98;;;8.25;;
41685;SDS011;27370;42.764;23.432;2022-11-11T11:16:49;13.05;;;8.27;;
41685;SDS011;27370;42.764;23.432;2022-11-11T11:19:38;14.05;;;8.60;;
41685;SDS011;27370;42.764;23.432;2022-11-11T11:22:22;13.00;;;8.13;;
41685;SDS011;27370;42.764;23.432;2022-11-11T11:25:31;13.77;;;8.07;;
41685;SDS011;27370;42.764;23.432;2022-11-11T11:28:18;15.82;;;9.85;;
41685;SDS011;27370;42.764;23.432;2022-11-11T11:31:03;15.07;;;8.88;;
41685;SDS011;27370;42.764;23.432;2022-11-11T11:33:55;12.63;;;8.35;;
41685;SDS011;27370;42.764;23.432;2022-11-11T11:36:39;12.50;;;8.02;;
41685;SDS011;27370;42.764;23.432;2022-11-11T11:39:31;14.20;;;8.13;;
41685;SDS011;27370;42.764;23.432;2022-11-11T11:42:26;15.35;;;9.20;;
41685;SDS011;27370;42.764;23.432;2022-11-11T11:50:59;12.57;;;7.85;;
41685;SDS011;27370;42.764;23.432;2022-11-11T11:54:13;13.85;;;8.48;;
41685;SDS011;27370;42.764;23.432;2022-11-11T11:57:16;11.48;;;7.28;;
41685;SDS011;27370;42.764;23.432;2022-11-11T12:14:39;14.15;;;7.85;;
41685;SDS011;27370;42.764;23.432;2022-11-11T12:20:56;13.15;;;8.15;;
41685;SDS011;27370;42.764;23.432;2022-11-11T12:26:45;11.38;;;7.75;;
41685;SDS011;27370;42.764;23.432;2022-11-11T12:36:34;15.80;;;9.48;;
41685;SDS011;27370;42.764;23.432;2022-11-11T12:45:30;18.00;;;11.82;;
41685;SDS011;27370;42.764;23.432;2022-11-11T12:48:32;15.02;;;9.45;;
41685;SDS011;27370;42.764;23.432;2022-11-11T12:55:11;15.00;;;9.35;;
41685;SDS011;27370;42.764;23.432;2022-11-11T13:00:53;18.02;;;11.27;;
41685;SDS011;27370;42.764;23.432;2022-11-11T13:07:20;18.55;;;10.40;;
41685;SDS011;27370;42.764;23.432;2022-11-11T13:10:15;16.27;;;10.55;;
41685;SDS011;27370;42.764;23.432;2022-11-11T13:16:30;12.77;;;7.13;;
41685;SDS011;27370;42.764;23.432;2022-11-11T13:22:06;11.65;;;6.88;;
41685;SDS011;27370;42.764;23.432;2022-11-11T13:24:57;12.73;;;7.38;;
41685;SDS011;27370;42.764;23.432;2022-11-11T13:27:49;12.88;;;7.32;;
41685;SDS011;27370;42.764;23.432;2022-11-11T13:33:49;12.27;;;6.53;;
41685;SDS011;27370;42.764;23.432;2022-11-11T13:36:40;12.93;;;7.00;;
41685;SDS011;27370;42.764;23.432;2022-11-11T13:39:36;11.27;;;6.45;;
41685;SDS011;27370;42.764;23.432;2022-11-11T13:42:27;12.30;;;6.57;;
41685;SDS011;27370;42.764;23.432;2022-11-11T13:45:25;14.20;;;5.70;;
41685;SDS011;27370;42.764;23.432;2022-11-11T13:48:17;10.93;;;5.68;;
41685;SDS011;27370;42.764;23.432;2022-11-11T13:51:48;11.18;;;6.22;;
41685;SDS011;27370;42.764;23.432;2022-11-11T13:54:21;11.20;;;5.88;;
41685;SDS011;27370;42.764;23.432;2022-11-11T14:08:59;8.57;;;4.35;;
41685;SDS011;27370;42.764;23.432;2022-11-11T14:11:43;10.13;;;4.78;;
41685;SDS011;27370;42.764;23.432;2022-11-11T14:17:15;12.65;;;4.95;;
41685;SDS011;27370;42.764;23.432;2022-11-11T14:26:19;10.90;;;5.45;;
41685;SDS011;27370;42.764;23.432;2022-11-11T14:29:13;10.95;;;5.72;;
41685;SDS011;27370;42.764;23.432;2022-11-11T14:32:14;12.70;;;6.03;;
41685;SDS011;27370;42.764;23.432;2022-11-11T14:35:27;11.15;;;6.28;;
41685;SDS011;27370;42.764;23.432;2022-11-11T14:47:17;11.15;;;6.18;;
41685;SDS011;27370;42.764;23.432;2022-11-11T14:53:19;12.05;;;6.55;;
41685;SDS011;27370;42.764;23.432;2022-11-11T14:56:11;13.88;;;6.43;;
41685;SDS011;27370;42.764;23.432;2022-11-11T14:59:02;10.85;;;6.00;;
41685;SDS011;27370;42.764;23.432;2022-11-11T15:01:50;12.45;;;6.80;;
41685;SDS011;27370;42.764;23.432;2022-11-11T15:04:37;12.55;;;6.55;;
41685;SDS011;27370;42.764;23.432;2022-11-11T15:07:24;12.05;;;6.20;;
41685;SDS011;27370;42.764;23.432;2022-11-11T15:10:17;13.30;;;6.60;;
41685;SDS011;27370;42.764;23.432;2022-11-11T15:22:32;13.88;;;6.85;;
41685;SDS011;27370;42.764;23.432;2022-11-11T15:34:39;12.65;;;7.53;;
41685;SDS011;27370;42.764;23.432;2022-11-11T15:37:47;17.63;;;7.57;;
41685;SDS011;27370;42.764;23.432;2022-11-11T15:40:46;12.02;;;6.43;;
41685;SDS011;27370;42.764;23.432;2022-11-11T15:43:32;12.38;;;6.13;;
41685;SDS011;27370;42.764;23.432;2022-11-11T15:46:22;12.38;;;6.90;;
41685;SDS011;27370;42.764;23.432;2022-11-11T15:49:13;12.98;;;7.03;;
41685;SDS011;27370;42.764;23.432;2022-11-11T15:51:58;14.02;;;6.93;;
41685;SDS011;27370;42.764;23.432;2022-11-11T15:54:42;14.60;;;8.05;;
41685;SDS011;27370;42.764;23.432;2022-11-11T15:57:30;13.98;;;8.05;;
41685;SDS011;27370;42.764;23.432;2022-11-11T16:06:16;15.15;;;8.80;;
41685;SDS011;27370;42.764;23.432;2022-11-11T16:09:00;16.75;;;9.43;;
41685;SDS011;27370;42.764;23.432;2022-11-11T16:11:45;15.45;;;9.10;;
41685;SDS011;27370;42.764;23.432;2022-11-11T16:17:15;16.42;;;9.65;;
41685;SDS011;27370;42.764;23.432;2022-11-11T16:20:00;15.75;;;9.90;;
41685;SDS011;27370;42.764;23.432;2022-11-11T16:22:45;17.00;;;10.00;;
41685;SDS011;27370;42.764;23.432;2022-11-11T16:25:32;15.02;;;9.25;;
41685;SDS011;27370;42.764;23.432;2022-11-11T16:28:17;14.93;;;8.98;;
41685;SDS011;27370;42.764;23.432;2022-11-11T16:31:18;17.70;;;10.52;;
41685;SDS011;27370;42.764;23.432;2022-11-11T16:37:11;15.52;;;9.43;;
41685;SDS011;27370;42.764;23.432;2022-11-11T16:39:56;15.93;;;9.82;;
41685;SDS011;27370;42.764;23.432;2022-11-11T16:46:07;15.13;;;9.27;;
41685;SDS011;27370;42.764;23.432;2022-11-11T16:48:55;17.08;;;10.18;;
41685;SDS011;27370;42.764;23.432;2022-11-11T16:51:42;17.25;;;10.57;;
41685;SDS011;27370;42.764;23.432;2022-11-11T16:54:29;18.90;;;11.02;;
41685;SDS011;27370;42.764;23.432;2022-11-11T16:57:17;17.58;;;9.15;;
41685;SDS011;27370;42.764;23.432;2022-11-11T17:00:04;16.65;;;10.15;;
41685;SDS011;27370;42.764;23.432;2022-11-11T17:03:08;17.75;;;10.82;;
41685;SDS011;27370;42.764;23.432;2022-11-11T17:08:42;17.80;;;10.95;;
41685;SDS011;27370;42.764;23.432;2022-11-11T17:11:48;21.85;;;12.70;;
41685;SDS011;27370;42.764;23.432;2022-11-11T17:14:32;22.15;;;13.77;;
41685;SDS011;27370;42.764;23.432;2022-11-11T17:17:18;24.48;;;14.05;;
41685;SDS011;27370;42.764;23.432;2022-11-11T17:20:07;20.98;;;12.63;;
41685;SDS011;27370;42.764;23.432;2022-11-11T17:22:54;19.80;;;12.00;;
41685;SDS011;27370;42.764;23.432;2022-11-11T17:25:39;20.30;;;11.65;;
41685;SDS011;27370;42.764;23.432;2022-11-11T17:28:23;18.35;;;11.32;;
41685;SDS011;27370;42.764;23.432;2022-11-11T17:31:07;18.63;;;11.07;;
41685;SDS011;27370;42.764;23.432;2022-11-11T17:33:53;18.50;;;11.00;;
41685;SDS011;27370;42.764;23.432;2022-11-11T17:36:36;20.20;;;12.45;;
41685;SDS011;27370;42.764;23.432;2022-11-11T17:39:20;23.58;;;14.45;;
41685;SDS011;27370;42.764;23.432;2022-11-11T17:42:05;26.05;;;16.38;;
41685;SDS011;27370;42.764;23.432;2022-11-11T17:44:49;26.88;;;17.65;;
41685;SDS011;27370;42.764;23.432;2022-11-11T17:47:33;25.92;;;17.42;;
41685;SDS011;27370;42.764;23.432;2022-11-11T17:50:17;25.65;;;17.38;;
41685;SDS011;27370;42.764;23.432;2022-11-11T17:53:01;27.08;;;18.33;;
41685;SDS011;27370;42.764;23.432;2022-11-11T17:55:46;24.25;;;17.17;;
41685;SDS011;27370;42.764;23.432;2022-11-11T17:58:30;24.58;;;16.75;;
41685;SDS011;27370;42.764;23.432;2022-11-11T18:01:14;26.38;;;17.45;;
41685;SDS011;27370;42.764;23.432;2022-11-11T18:03:58;24.95;;;17.20;;
41685;SDS011;27370;42.764;23.432;2022-11-11T18:06:42;25.15;;;17.45;;
41685;SDS011;27370;42.764;23.432;2022-11-11T18:09:26;25.40;;;16.90;;
41685;SDS011;27370;42.764;23.432;2022-11-11T18:12:10;27.10;;;17.65;;
41685;SDS011;27370;42.764;23.432;2022-11-11T18:14:54;28.10;;;18.45;;
41685;SDS011;27370;42.764;23.432;2022-11-11T18:17:38;27.45;;;18.48;;
41685;SDS011;27370;42.764;23.432;2022-11-11T18:20:22;26.35;;;18.27;;
41685;SDS011;27370;42.764;23.432;2022-11-11T18:23:06;26.90;;;18.40;;
41685;SDS011;27370;42.764;23.432;2022-11-11T18:25:53;30.92;;;21.38;;
41685;SDS011;27370;42.764;23.432;2022-11-11T18:28:38;34.85;;;22.73;;
41685;SDS011;27370;42.764;23.432;2022-11-11T18:31:22;32.92;;;21.33;;
41685;SDS011;27370;42.764;23.432;2022-11-11T18:34:05;49.55;;;30.90;;
41685;SDS011;27370;42.764;23.432;2022-11-11T18:36:50;35.35;;;23.38;;
41685;SDS011;27370;42.764;23.432;2022-11-11T18:39:35;29.20;;;20.45;;
41685;SDS011;27370;42.764;23.432;2022-11-11T18:42:19;36.33;;;21.25;;
41685;SDS011;27370;42.764;23.432;2022-11-11T18:45:03;30.60;;;20.77;;
41685;SDS011;27370;42.764;23.432;2022-11-11T18:47:47;30.00;;;18.45;;
41685;SDS011;27370;42.764;23.432;2022-11-11T18:50:31;26.35;;;18.30;;
41685;SDS011;27370;42.764;23.432;2022-11-11T18:53:15;30.73;;;19.80;;
41685;SDS011;27370;42.764;23.432;2022-11-11T18:56:03;40.10;;;22.35;;
41685;SDS011;27370;42.764;23.432;2022-11-11T18:58:58;28.38;;;18.88;;